Time;durP1;ratioP1;P1;durP2;ratioP2;P2;SDS_P1;SDS_P2;PMS_P1;PMS_P2;Temp;Humidity;BMP_temperature;BMP_pressure;BME280_temperature;BME280_humidity;BME280_pressure;Samples;Min_cycle;Max_cycle;Signal;HPM_P1;HPM_P2
2022/01/22 00:01:14;;;;;;;14.45;3.38;;;6.50;99.90;;;;;;5090742;28;20495;-83
2022/01/22 00:03:39;;;;;;;13.30;3.70;;;6.50;99.90;;;;;;5089493;28;20040;-83
2022/01/22 00:06:05;;;;;;;18.20;4.07;;;6.50;99.90;;;;;;5090102;28;20067;-82
2022/01/22 00:08:31;;;;;;;19.10;3.47;;;6.50;99.90;;;;;;5089142;28;20043;-83
2022/01/22 00:10:58;;;;;;;26.70;3.22;;;6.50;99.90;;;;;;5073970;28;20092;-83
2022/01/22 00:16:09;;;;;;;14.70;2.33;;;6.50;99.90;;;;;;5090330;28;20044;-84
2022/01/22 00:18:34;;;;;;;10.60;1.88;;;6.50;99.90;;;;;;5090821;28;20517;-83
2022/01/22 00:21:00;;;;;;;14.05;2.08;;;6.50;99.90;;;;;;5090411;28;20036;-84
2022/01/22 00:23:27;;;;;;;13.07;1.77;;;6.50;99.90;;;;;;5090399;28;20039;-83
2022/01/22 00:25:55;;;;;;;14.02;1.40;;;6.50;99.90;;;;;;5089949;28;20406;-83
2022/01/22 00:28:21;;;;;;;9.40;1.20;;;6.50;99.90;;;;;;5090149;28;20409;-83
2022/01/22 00:30:47;;;;;;;9.55;1.50;;;6.50;99.90;;;;;;5073741;28;20043;-84
2022/01/22 00:33:15;;;;;;;12.00;2.78;;;6.50;99.90;;;;;;5090317;28;20040;-83
2022/01/22 00:35:41;;;;;;;7.75;0.93;;;6.50;99.90;;;;;;5090297;28;20036;-83
2022/01/22 00:38:07;;;;;;;13.35;2.33;;;6.50;99.90;;;;;;5090201;28;20040;-83
2022/01/22 00:40:33;;;;;;;6.07;1.42;;;6.60;99.90;;;;;;5090079;28;20047;-84
2022/01/22 00:42:58;;;;;;;7.13;1.50;;;6.60;99.90;;;;;;5090299;28;20066;-82
2022/01/22 00:45:24;;;;;;;7.63;1.58;;;6.60;99.90;;;;;;5090366;28;20040;-84
2022/01/22 00:47:50;;;;;;;5.40;1.23;;;6.60;99.90;;;;;;5090117;28;20040;-84
2022/01/22 00:50:18;;;;;;;6.60;0.70;;;6.60;99.90;;;;;;5090069;28;20042;-83
2022/01/22 00:52:45;;;;;;;3.42;0.75;;;6.60;99.90;;;;;;5090067;28;20119;-83
2022/01/22 00:55:12;;;;;;;5.70;0.85;;;6.60;99.90;;;;;;5090024;28;20036;-83
2022/01/22 00:57:40;;;;;;;12.70;1.25;;;6.60;99.90;;;;;;5090313;28;20066;-83
2022/01/22 01:00:09;;;;;;;19.15;1.42;;;6.60;99.90;;;;;;5090222;28;20075;-83
2022/01/22 01:02:36;;;;;;;11.13;0.85;;;6.60;99.90;;;;;;5089978;28;20052;-83
2022/01/22 01:05:03;;;;;;;12.65;0.98;;;6.60;99.90;;;;;;5089770;28;20040;-83
2022/01/22 01:07:30;;;;;;;4.45;0.90;;;6.60;99.90;;;;;;5072385;28;20036;-83
2022/01/22 01:09:56;;;;;;;10.35;0.98;;;6.60;99.90;;;;;;5089590;28;20096;-83
2022/01/22 01:12:22;;;;;;;4.03;0.93;;;6.60;99.90;;;;;;5090188;28;20182;-82
2022/01/22 01:15:17;;;;;;;5.88;1.00;;;6.60;99.90;;;;;;5090238;28;20040;-84
2022/01/22 01:34:10;;;;;;;4.88;0.82;;;6.60;99.90;;;;;;5090624;28;20170;-83
2022/01/22 01:36:36;;;;;;;7.20;1.25;;;6.60;99.90;;;;;;5093727;28;20044;-84
2022/01/22 01:39:04;;;;;;;3.53;0.65;;;6.60;99.90;;;;;;5093432;28;20090;-83
2022/01/22 01:41:51;;;;;;;6.88;0.70;;;6.60;99.90;;;;;;5076703;28;20040;-83
2022/01/22 01:44:17;;;;;;;7.55;0.52;;;6.60;99.90;;;;;;5076740;28;20032;-83
2022/01/22 01:46:45;;;;;;;2.55;0.35;;;6.60;99.90;;;;;;5093260;28;20036;-83
2022/01/22 01:49:11;;;;;;;2.22;0.40;;;6.60;99.90;;;;;;5093334;28;20040;-83
2022/01/22 01:51:37;;;;;;;5.80;0.35;;;6.70;99.90;;;;;;5093645;28;20047;-84
2022/01/22 01:54:14;;;;;;;3.35;0.40;;;6.60;99.90;;;;;;5076393;28;20040;-84
2022/01/22 01:59:24;;;;;;;6.15;0.68;;;6.70;99.90;;;;;;5093652;28;20130;-82
2022/01/22 02:01:50;;;;;;;4.10;0.50;;;6.70;99.90;;;;;;5092925;28;20032;-83
2022/01/22 02:04:15;;;;;;;4.68;0.60;;;6.70;99.90;;;;;;5093644;28;20425;-83
2022/01/22 02:06:42;;;;;;;7.22;0.75;;;6.70;99.90;;;;;;5093071;28;20042;-84
2022/01/22 02:09:09;;;;;;;6.80;0.88;;;6.70;99.90;;;;;;5092506;28;20079;-83
2022/01/22 02:11:36;;;;;;;6.55;0.88;;;6.60;99.90;;;;;;5093050;28;20039;-83
2022/01/22 02:14:10;;;;;;;5.50;0.88;;;6.60;99.90;;;;;;5093061;28;20453;-84
2022/01/22 02:24:56;;;;;;;4.63;0.47;;;6.60;99.90;;;;;;5092496;28;20109;-84
2022/01/22 02:27:22;;;;;;;7.97;0.95;;;6.60;99.90;;;;;;5092591;28;20044;-84
2022/01/22 02:29:48;;;;;;;7.57;0.93;;;6.60;99.90;;;;;;5092606;28;20043;-83
2022/01/22 02:35:02;;;;;;;8.52;0.77;;;6.60;99.90;;;;;;5092748;28;20479;-82
2022/01/22 02:37:34;;;;;;;6.28;0.47;;;6.60;99.90;;;;;;5075778;28;20068;-82
2022/01/22 02:40:09;;;;;;;3.88;0.70;;;6.60;99.90;;;;;;5092861;28;20136;-83
2022/01/22 02:42:35;;;;;;;7.03;0.55;;;6.60;99.90;;;;;;5092592;28;20151;-83
2022/01/22 02:45:10;;;;;;;2.28;0.30;;;6.50;99.90;;;;;;5091733;28;20071;-83
2022/01/22 02:47:37;;;;;;;1.98;0.25;;;6.60;99.90;;;;;;5091955;28;20402;-82
2022/01/22 02:50:05;;;;;;;6.70;2.15;;;6.50;99.90;;;;;;5075186;28;20126;-83
2022/01/22 02:52:30;;;;;;;1.48;0.25;;;6.50;99.90;;;;;;5092533;28;20375;-83
2022/01/22 02:54:56;;;;;;;3.45;0.35;;;6.50;99.90;;;;;;5075310;28;20036;-82
2022/01/22 02:57:23;;;;;;;7.82;1.70;;;6.50;99.90;;;;;;5091755;28;20096;-83
2022/01/22 02:59:49;;;;;;;2.50;0.35;;;6.50;99.90;;;;;;5075314;28;20044;-82
2022/01/22 03:02:15;;;;;;;2.85;0.30;;;6.50;99.90;;;;;;5091913;28;20046;-81
2022/01/22 03:04:42;;;;;;;4.38;0.30;;;6.50;99.90;;;;;;5091614;28;20157;-83
2022/01/22 03:07:08;;;;;;;3.80;0.50;;;6.50;99.90;;;;;;5092030;28;20109;-83
2022/01/22 03:09:41;;;;;;;6.88;1.38;;;6.50;99.90;;;;;;5092352;28;20085;-82
2022/01/22 03:27:49;;;;;;;5.53;0.93;;;6.40;99.90;;;;;;5091530;28;20052;-83
2022/01/22 03:30:15;;;;;;;4.10;0.43;;;6.40;99.90;;;;;;5074482;28;20501;-83
2022/01/22 03:32:44;;;;;;;2.63;0.52;;;6.40;99.90;;;;;;5075285;28;20076;-83
2022/01/22 03:35:34;;;;;;;6.20;1.80;;;6.40;99.90;;;;;;5090754;28;20080;-82
2022/01/22 03:37:59;;;;;;;3.63;0.50;;;6.40;99.90;;;;;;5091398;28;20109;-83
2022/01/22 03:40:28;;;;;;;4.03;0.63;;;6.40;99.90;;;;;;5091646;28;20040;-83
2022/01/22 03:42:54;;;;;;;5.63;0.38;;;6.40;99.90;;;;;;5091141;28;20052;-82
2022/01/22 03:45:22;;;;;;;4.45;0.90;;;6.40;99.90;;;;;;5091302;28;20154;-83
2022/01/22 03:47:48;;;;;;;6.40;0.63;;;6.40;99.90;;;;;;5074213;28;20048;-83
2022/01/22 03:50:15;;;;;;;4.93;0.50;;;6.40;99.90;;;;;;5074200;28;20487;-83
2022/01/22 03:52:41;;;;;;;7.55;0.68;;;6.30;99.90;;;;;;5091210;28;20487;-83
2022/01/22 03:55:13;;;;;;;6.47;1.70;;;6.40;99.90;;;;;;5074185;28;20123;-83
2022/01/22 03:57:39;;;;;;;5.60;0.65;;;6.40;99.90;;;;;;5090972;28;20043;-82
2022/01/22 04:00:07;;;;;;;7.05;1.00;;;6.40;99.90;;;;;;5091316;28;20059;-84
2022/01/22 04:05:02;;;;;;;3.90;1.98;;;6.40;99.90;;;;;;5091124;28;20136;-83
2022/01/22 04:08:07;;;;;;;5.43;0.45;;;6.40;99.90;;;;;;5090939;28;20043;-82
2022/01/22 04:10:18;;;;;;;7.05;1.30;;;6.30;99.90;;;;;;5090985;28;20044;-84
2022/01/22 04:15:12;;;;;;;6.15;0.95;;;6.40;99.90;;;;;;5091131;28;20055;-83
2022/01/22 04:25:59;;;;;;;5.53;0.88;;;6.30;99.90;;;;;;5092326;28;20063;-83
2022/01/22 04:28:25;;;;;;;3.20;1.08;;;6.40;99.90;;;;;;5092642;28;20059;-82
2022/01/22 04:30:50;;;;;;;6.55;0.63;;;6.40;99.90;;;;;;5091967;28;20035;-83
2022/01/22 04:33:16;;;;;;;7.68;1.27;;;6.40;99.90;;;;;;5092224;28;20036;-82
2022/01/22 04:35:42;;;;;;;2.97;0.63;;;6.40;99.90;;;;;;5091628;28;20040;-82
2022/01/22 04:38:07;;;;;;;2.95;0.65;;;6.40;99.90;;;;;;5092549;28;20071;-81
2022/01/22 04:40:33;;;;;;;4.03;0.75;;;6.40;99.90;;;;;;5091804;28;20059;-83
2022/01/22 04:43:00;;;;;;;2.20;0.50;;;6.40;99.90;;;;;;5091989;28;20093;-83
2022/01/22 04:46:09;;;;;;;3.53;0.50;;;6.40;99.90;;;;;;5091578;28;20036;-82
2022/01/22 04:56:11;;;;;;;5.18;1.95;;;6.30;99.90;;;;;;5091750;28;20058;-82
2022/01/22 04:58:37;;;;;;;3.22;0.40;;;6.30;99.90;;;;;;5074788;28;20131;-82
2022/01/22 05:01:02;;;;;;;1.70;0.32;;;6.40;99.90;;;;;;5091850;28;20119;-82
2022/01/22 05:03:28;;;;;;;3.40;0.30;;;6.30;99.90;;;;;;5091657;28;20047;-82
2022/01/22 05:05:53;;;;;;;2.20;0.28;;;6.40;99.90;;;;;;5091761;28;20036;-83
2022/01/22 05:08:19;;;;;;;2.20;0.70;;;6.40;99.90;;;;;;5091392;28;20040;-82
2022/01/22 05:10:44;;;;;;;2.47;0.20;;;6.30;99.90;;;;;;5095957;28;20040;-83
2022/01/22 05:13:10;;;;;;;2.28;0.25;;;6.30;99.90;;;;;;5095594;28;20039;-83
2022/01/22 05:15:35;;;;;;;3.45;0.40;;;6.30;99.90;;;;;;5096335;28;20040;-83
2022/01/22 05:18:05;;;;;;;6.15;0.50;;;6.30;99.90;;;;;;5095014;28;20069;-82
2022/01/22 05:20:38;;;;;;;3.70;0.77;;;6.30;99.90;;;;;;5096126;28;20043;-82
2022/01/22 05:23:11;;;;;;;8.00;0.77;;;6.30;99.90;;;;;;5095100;28;20563;-82
2022/01/22 05:25:55;;;;;;;6.28;0.90;;;6.30;99.90;;;;;;5095467;28;20060;-83
2022/01/22 05:30:59;;;;;;;4.53;0.88;;;6.30;99.90;;;;;;5095428;28;20046;-83
2022/01/22 05:38:38;;;;;;;5.18;0.40;;;6.30;99.90;;;;;;5095980;28;20048;-82
2022/01/22 05:41:03;;;;;;;2.88;0.43;;;6.30;99.90;;;;;;5094800;28;20518;-83
2022/01/22 05:43:29;;;;;;;2.90;0.73;;;6.30;99.90;;;;;;5095568;28;20043;-82
2022/01/22 05:45:54;;;;;;;5.25;1.35;;;6.30;99.90;;;;;;5094586;28;20096;-82
2022/01/22 05:48:20;;;;;;;4.45;0.50;;;6.30;99.90;;;;;;5078366;28;20044;-82
2022/01/22 05:50:56;;;;;;;3.17;0.47;;;6.30;99.90;;;;;;5095049;28;20040;-82
2022/01/22 06:01:14;;;;;;;3.15;0.32;;;6.30;99.90;;;;;;5094481;28;20039;-82
2022/01/22 06:03:40;;;;;;;3.65;0.32;;;6.30;99.90;;;;;;5094761;28;20053;-82
2022/01/22 06:06:06;;;;;;;3.53;0.43;;;6.30;99.90;;;;;;5095761;28;20070;-83
2022/01/22 06:08:40;;;;;;;4.00;0.43;;;6.30;99.90;;;;;;5094931;28;20351;-83
2022/01/22 06:11:11;;;;;;;7.20;0.68;;;6.30;99.90;;;;;;5095469;28;20495;-82
2022/01/22 06:13:44;;;;;;;4.80;1.42;;;6.30;99.90;;;;;;5094986;28;20505;-84
2022/01/22 06:16:16;;;;;;;4.38;0.85;;;6.30;99.90;;;;;;5074849;28;20040;-83
2022/01/22 06:18:42;;;;;;;3.38;0.32;;;6.30;99.90;;;;;;5057279;28;20514;-84
2022/01/22 06:21:09;;;;;;;7.70;0.50;;;6.30;99.90;;;;;;5077283;28;20048;-84
2022/01/22 06:23:35;;;;;;;4.20;0.85;;;6.30;99.90;;;;;;5094226;28;20511;-83
2022/01/22 06:26:01;;;;;;;5.72;0.60;;;6.30;99.90;;;;;;5094377;28;20047;-83
2022/01/22 06:28:27;;;;;;;5.18;0.80;;;6.30;99.90;;;;;;5094139;28;20036;-84
2022/01/22 06:30:53;;;;;;;5.63;0.73;;;6.30;99.90;;;;;;5094353;28;20119;-83
2022/01/22 06:33:19;;;;;;;5.88;0.85;;;6.30;99.90;;;;;;5094665;28;20068;-84
2022/01/22 06:35:44;;;;;;;8.23;1.17;;;6.30;99.90;;;;;;5094327;28;20036;-84
2022/01/22 06:38:10;;;;;;;7.90;1.20;;;6.30;99.90;;;;;;5093867;28;20086;-83
2022/01/22 06:43:02;;;;;;;8.20;1.40;;;6.30;99.90;;;;;;5094081;28;20309;-84
2022/01/22 06:45:28;;;;;;;9.70;1.50;;;6.30;99.90;;;;;;5077094;28;20076;-83
2022/01/22 06:47:53;;;;;;;7.82;0.90;;;6.30;99.90;;;;;;5094252;28;20131;-84
2022/01/22 06:50:20;;;;;;;10.10;1.48;;;6.30;99.90;;;;;;5093305;28;20111;-84
2022/01/22 06:52:46;;;;;;;10.77;1.27;;;6.30;99.90;;;;;;5094190;28;20050;-83
2022/01/22 06:55:15;;;;;;;5.25;1.00;;;6.30;99.90;;;;;;5093478;28;20043;-84
2022/01/22 06:57:41;;;;;;;8.55;1.17;;;6.30;99.90;;;;;;5076887;28;20044;-83
2022/01/22 07:00:07;;;;;;;8.90;1.60;;;6.30;99.90;;;;;;5093598;28;20040;-83
2022/01/22 07:02:33;;;;;;;7.13;1.35;;;6.30;99.90;;;;;;5077671;28;20081;-84
2022/01/22 07:04:58;;;;;;;6.60;0.73;;;6.30;99.90;;;;;;5093417;28;20040;-83
2022/01/22 07:07:24;;;;;;;6.90;0.80;;;6.30;99.90;;;;;;5093816;28;20510;-83
2022/01/22 07:09:50;;;;;;;9.90;1.42;;;6.30;99.90;;;;;;5093564;28;20439;-84
2022/01/22 07:12:15;;;;;;;9.50;1.88;;;6.30;99.90;;;;;;5093108;28;20040;-83
2022/01/22 07:14:41;;;;;;;6.82;1.33;;;6.30;99.90;;;;;;5077036;28;20062;-84
2022/01/22 07:17:08;;;;;;;5.97;0.77;;;6.30;99.90;;;;;;5093645;28;20047;-83
2022/01/22 07:19:39;;;;;;;6.82;1.15;;;6.30;99.90;;;;;;5093345;28;20051;-83
2022/01/22 07:22:18;;;;;;;5.68;1.42;;;6.30;99.90;;;;;;5094296;28;20380;-84
2022/01/22 07:24:44;;;;;;;10.55;1.05;;;6.30;99.90;;;;;;5095428;28;20044;-84
2022/01/22 07:27:10;;;;;;;7.88;0.88;;;6.30;99.90;;;;;;5094233;28;20505;-84
2022/01/22 07:29:35;;;;;;;4.85;0.60;;;6.30;99.90;;;;;;5095100;28;20518;-83
2022/01/22 07:32:03;;;;;;;4.45;0.60;;;6.30;99.90;;;;;;5094104;28;20058;-83
2022/01/22 07:34:28;;;;;;;4.47;0.38;;;6.30;99.90;;;;;;5096569;28;20106;-84
2022/01/22 07:36:54;;;;;;;4.18;0.50;;;6.30;99.90;;;;;;5093308;28;20086;-82
2022/01/22 07:39:20;;;;;;;3.88;0.60;;;6.30;99.90;;;;;;5095004;28;20115;-82
2022/01/22 07:41:46;;;;;;;4.13;0.80;;;6.20;99.90;;;;;;5094765;28;20407;-84
2022/01/22 07:44:12;;;;;;;6.25;1.23;;;6.20;99.90;;;;;;5094740;28;20483;-82
2022/01/22 07:46:38;;;;;;;6.40;1.10;;;6.20;99.90;;;;;;5093543;28;20032;-82
2022/01/22 07:49:05;;;;;;;10.75;1.15;;;6.20;99.90;;;;;;5094162;28;20147;-82
2022/01/22 07:51:31;;;;;;;8.80;1.27;;;6.20;99.90;;;;;;5094738;28;20063;-82
2022/01/22 07:53:57;;;;;;;8.00;1.58;;;6.20;99.90;;;;;;5094518;28;20036;-83
2022/01/22 07:56:22;;;;;;;6.78;1.00;;;6.20;99.90;;;;;;5077481;28;20039;-84
2022/01/22 07:58:49;;;;;;;7.68;0.98;;;6.20;99.90;;;;;;5094348;28;20040;-83
2022/01/22 08:01:14;;;;;;;7.63;1.13;;;6.20;99.90;;;;;;5095506;28;20150;-84
2022/01/22 08:03:40;;;;;;;6.00;1.77;;;6.20;99.90;;;;;;5076374;28;20487;-83
2022/01/22 08:06:06;;;;;;;8.82;1.00;;;6.20;99.90;;;;;;5093402;28;20047;-84
2022/01/22 08:08:34;;;;;;;9.77;1.73;;;6.20;99.90;;;;;;5093369;28;20067;-83
2022/01/22 08:11:00;;;;;;;8.95;1.23;;;6.20;99.90;;;;;;5094316;28;20541;-84
2022/01/22 08:13:25;;;;;;;4.13;0.77;;;6.20;99.90;;;;;;5094247;28;20122;-82
2022/01/22 08:15:51;;;;;;;5.15;0.50;;;6.20;99.90;;;;;;5093166;28;20059;-83
2022/01/22 08:18:16;;;;;;;4.95;0.52;;;6.20;99.90;;;;;;5077165;28;20044;-83
2022/01/22 08:20:42;;;;;;;3.45;0.60;;;6.20;99.90;;;;;;5077984;28;20043;-83
2022/01/22 08:23:08;;;;;;;4.53;1.00;;;6.20;99.90;;;;;;5094214;28;20091;-84
2022/01/22 08:25:33;;;;;;;3.58;0.52;;;6.20;99.90;;;;;;5094218;28;20047;-83
2022/01/22 08:30:34;;;;;;;4.85;0.77;;;6.30;99.90;;;;;;5094756;28;20180;-84
2022/01/22 08:35:55;;;;;;;2.97;0.77;;;6.20;99.90;;;;;;5037239;28;20041;-83
2022/01/22 08:38:22;;;;;;;2.10;0.40;;;6.30;99.90;;;;;;5056846;28;20043;-84
2022/01/22 08:40:48;;;;;;;3.15;0.40;;;6.30;99.90;;;;;;5073047;28;20052;-80
2022/01/22 08:43:14;;;;;;;2.53;0.47;;;6.30;99.90;;;;;;5060462;28;20040;-81
2022/01/22 08:45:40;;;;;;;3.25;0.28;;;6.30;99.90;;;;;;5093134;28;20046;-81
2022/01/22 08:48:05;;;;;;;1.52;0.52;;;6.30;99.90;;;;;;5093400;28;20079;-82
2022/01/22 08:50:33;;;;;;;3.83;0.50;;;6.20;99.90;;;;;;5093876;28;20097;-80
2022/01/22 08:52:59;;;;;;;5.78;0.40;;;6.30;99.90;;;;;;5092855;28;20036;-81
2022/01/22 08:55:24;;;;;;;2.92;0.50;;;6.30;99.90;;;;;;5093840;28;20089;-80
2022/01/22 08:57:51;;;;;;;2.20;0.30;;;6.30;99.90;;;;;;5094206;28;20464;-82
2022/01/22 09:00:20;;;;;;;4.07;0.20;;;6.30;99.90;;;;;;5093424;28;20119;-82
2022/01/22 09:02:48;;;;;;;1.75;0.28;;;6.40;99.90;;;;;;5093470;28;20051;-81
2022/01/22 09:05:16;;;;;;;4.20;0.88;;;6.40;99.90;;;;;;5092816;28;20395;-80
2022/01/22 09:07:42;;;;;;;1.67;0.30;;;6.30;99.90;;;;;;5092972;28;20086;-81
2022/01/22 09:10:08;;;;;;;5.10;0.40;;;6.30;99.90;;;;;;5094085;28;20111;-81
2022/01/22 09:12:34;;;;;;;53.38;27.98;;;6.40;99.90;;;;;;5095266;28;20140;-81
2022/01/22 09:15:00;;;;;;;5.20;1.90;;;6.40;99.90;;;;;;5094453;28;20531;-81
2022/01/22 09:17:25;;;;;;;31.75;16.50;;;6.40;99.90;;;;;;5093927;28;20419;-82
2022/01/22 09:19:56;;;;;;;145.38;79.82;;;6.40;99.90;;;;;;5094520;28;20044;-82
2022/01/22 09:22:23;;;;;;;40.83;23.23;;;6.50;99.90;;;;;;5094613;28;20035;-81
2022/01/22 09:24:49;;;;;;;14.75;7.53;;;6.40;99.90;;;;;;5095410;28;20048;-82
2022/01/22 09:27:16;;;;;;;4.03;0.93;;;6.50;99.90;;;;;;5093925;28;20441;-85
2022/01/22 09:29:42;;;;;;;4.63;0.88;;;6.50;99.90;;;;;;5094549;28;20040;-84
2022/01/22 09:32:08;;;;;;;4.82;0.47;;;6.50;99.90;;;;;;5093966;28;20032;-84
2022/01/22 09:34:34;;;;;;;3.67;0.90;;;6.50;99.90;;;;;;5077696;28;20039;-83
2022/01/22 09:36:59;;;;;;;2.55;0.20;;;6.50;99.90;;;;;;5076422;28;20063;-84
2022/01/22 09:39:25;;;;;;;4.43;1.13;;;6.50;99.90;;;;;;5093718;28;20032;-84
2022/01/22 09:41:51;;;;;;;4.65;0.60;;;6.50;99.90;;;;;;5093345;28;20100;-84
2022/01/22 09:44:16;;;;;;;3.50;0.50;;;6.50;99.90;;;;;;5094427;28;20036;-84
2022/01/22 09:46:45;;;;;;;3.55;0.40;;;6.50;99.90;;;;;;5093564;28;20044;-85
2022/01/22 09:49:11;;;;;;;5.57;0.93;;;6.50;99.90;;;;;;5094632;28;20051;-82
2022/01/22 09:51:36;;;;;;;4.45;0.30;;;6.50;99.90;;;;;;5095567;28;20036;-82
2022/01/22 09:54:02;;;;;;;5.32;0.40;;;6.50;99.90;;;;;;5094546;28;20039;-82
2022/01/22 09:56:30;;;;;;;5.38;0.70;;;6.60;99.90;;;;;;5097023;28;20538;-82
2022/01/22 09:58:55;;;;;;;2.78;0.35;;;6.60;99.90;;;;;;5081325;28;20048;-82
2022/01/22 10:01:28;;;;;;;3.42;0.22;;;6.70;99.90;;;;;;5099195;28;20047;-82
2022/01/22 10:03:57;;;;;;;6.85;0.40;;;6.70;99.90;;;;;;5097097;28;20093;-82
2022/01/22 10:06:25;;;;;;;4.28;0.30;;;6.80;99.90;;;;;;5098959;28;20048;-82
2022/01/22 10:08:54;;;;;;;6.47;1.05;;;6.80;99.90;;;;;;5096805;28;20498;-81
2022/01/22 10:11:26;;;;;;;5.53;0.85;;;6.80;99.90;;;;;;5080866;28;20509;-81
2022/01/22 10:13:56;;;;;;;72.60;39.63;;;6.80;99.90;;;;;;5096598;28;20096;-82
2022/01/22 10:16:36;;;;;;;30.20;14.57;;;6.80;99.90;;;;;;5097750;28;20115;-82
2022/01/22 10:19:13;;;;;;;6.55;2.35;;;6.80;99.90;;;;;;5096266;28;20065;-83
2022/01/22 10:21:44;;;;;;;6.28;0.50;;;6.80;99.90;;;;;;5076340;28;20040;-83
2022/01/22 10:24:22;;;;;;;4.47;0.40;;;6.80;99.90;;;;;;5076267;28;20046;-83
2022/01/22 10:27:11;;;;;;;4.18;0.30;;;6.90;99.90;;;;;;5092803;28;20044;-84
2022/01/22 10:29:36;;;;;;;4.30;0.40;;;7.00;99.90;;;;;;5093147;28;20044;-84
2022/01/22 10:32:04;;;;;;;3.35;0.45;;;7.00;99.90;;;;;;5075801;28;20093;-83
2022/01/22 10:34:30;;;;;;;4.32;1.25;;;7.00;99.90;;;;;;5093016;28;20490;-84
2022/01/22 10:36:57;;;;;;;4.28;0.50;;;6.90;99.90;;;;;;5092530;28;20046;-84
2022/01/22 10:39:26;;;;;;;1.35;0.40;;;6.90;99.90;;;;;;5093006;28;20043;-84
2022/01/22 10:41:52;;;;;;;4.00;0.50;;;6.90;99.90;;;;;;5092598;28;20081;-84
2022/01/22 10:44:22;;;;;;;6.18;0.52;;;6.90;99.90;;;;;;5093545;28;20080;-84
2022/01/22 10:46:52;;;;;;;5.03;0.82;;;6.90;99.90;;;;;;5075625;28;20040;-85
2022/01/22 10:49:23;;;;;;;6.90;0.40;;;6.80;99.90;;;;;;5093091;28;20044;-84
2022/01/22 10:51:50;;;;;;;5.18;0.82;;;6.90;99.90;;;;;;5092633;28;20513;-84
2022/01/22 10:54:21;;;;;;;5.93;0.90;;;6.90;99.90;;;;;;5075971;28;20495;-84
2022/01/22 10:56:47;;;;;;;2.08;0.25;;;6.90;99.90;;;;;;5092048;28;20115;-85
2022/01/22 10:59:16;;;;;;;7.53;0.70;;;6.90;99.90;;;;;;5092523;28;20044;-84
2022/01/22 11:01:59;;;;;;;2.95;0.55;;;6.90;99.90;;;;;;5091991;28;20114;-85
2022/01/22 11:04:30;;;;;;;2.92;0.30;;;6.90;99.90;;;;;;5085995;28;20376;-85
2022/01/22 11:07:01;;;;;;;5.38;0.30;;;6.90;99.90;;;;;;5091258;28;20043;-84
2022/01/22 11:09:30;;;;;;;2.58;0.52;;;6.90;99.90;;;;;;5092064;28;20063;-85
2022/01/22 11:11:57;;;;;;;4.15;0.40;;;6.90;99.90;;;;;;5092236;28;20044;-85
2022/01/22 11:14:23;;;;;;;3.03;0.55;;;6.90;99.90;;;;;;5075830;28;20487;-85
2022/01/22 11:16:50;;;;;;;5.28;0.95;;;7.00;99.90;;;;;;5091826;28;20493;-85
2022/01/22 11:19:18;;;;;;;5.20;1.42;;;7.10;99.90;;;;;;5091396;28;20044;-84
2022/01/22 11:21:47;;;;;;;3.17;0.40;;;7.10;99.90;;;;;;5091659;28;20028;-85
2022/01/22 11:24:14;;;;;;;3.42;0.30;;;7.00;99.90;;;;;;5091754;28;20593;-85
2022/01/22 11:26:42;;;;;;;3.22;0.30;;;7.00;99.90;;;;;;5092008;28;20036;-85
2022/01/22 11:29:09;;;;;;;4.43;0.40;;;6.90;99.90;;;;;;5091880;28;20086;-85
2022/01/22 11:31:37;;;;;;;4.55;1.95;;;6.90;99.90;;;;;;5092032;28;20210;-85
2022/01/22 11:34:04;;;;;;;5.35;0.60;;;6.90;99.90;;;;;;5090709;28;20509;-83
2022/01/22 11:36:42;;;;;;;3.03;0.63;;;6.90;99.90;;;;;;5074120;28;20036;-84
2022/01/22 11:39:18;;;;;;;4.68;0.70;;;6.90;99.90;;;;;;5091641;28;20421;-84
2022/01/22 11:41:52;;;;;;;4.57;0.45;;;6.90;99.90;;;;;;5089715;28;20040;-84
2022/01/22 11:44:50;;;;;;;4.50;0.73;;;6.90;99.90;;;;;;5079193;28;20066;-85
2022/01/22 11:47:20;;;;;;;6.22;0.90;;;6.90;99.90;;;;;;5089083;28;20056;-84
2022/01/22 11:50:07;;;;;;;13.68;0.80;;;6.90;99.90;;;;;;5089748;28;20043;-84
2022/01/22 11:52:36;;;;;;;3.17;0.60;;;6.90;99.90;;;;;;5090073;28;20040;-84
2022/01/22 11:55:16;;;;;;;171.73;121.55;;;6.80;99.90;;;;;;5089811;28;20552;-84
2022/01/22 11:57:44;;;;;;;6.97;3.33;;;6.90;99.90;;;;;;5089771;28;20036;-84
2022/01/22 12:00:20;;;;;;;64.57;39.55;;;6.90;99.90;;;;;;5090834;28;20036;-85
2022/01/22 12:03:04;;;;;;;13.93;5.65;;;6.90;99.90;;;;;;5071057;28;20052;-85
2022/01/22 12:05:30;;;;;;;15.95;7.55;;;6.90;99.90;;;;;;5085231;28;20463;-81
2022/01/22 12:07:58;;;;;;;3.70;0.93;;;6.90;99.90;;;;;;5091028;28;20068;-83
2022/01/22 12:10:42;;;;;;;5.10;0.80;;;6.90;99.90;;;;;;5091206;28;20110;-82
2022/01/22 12:16:13;;;;;;;4.05;0.77;;;6.90;99.90;;;;;;5090683;28;20042;-82
2022/01/22 12:18:47;;;;;;;5.25;1.63;;;6.90;99.90;;;;;;5090782;28;20032;-82
2022/01/22 12:21:48;;;;;;;5.50;1.88;;;6.90;99.90;;;;;;5090961;28;20047;-82
2022/01/22 12:24:30;;;;;;;5.40;0.90;;;6.90;99.90;;;;;;4998430;28;20038;-82
2022/01/22 12:26:59;;;;;;;3.50;1.15;;;6.90;99.90;;;;;;5072413;28;20478;-83
2022/01/22 12:29:32;;;;;;;9.55;1.33;;;6.90;99.90;;;;;;5091529;28;20047;-85
2022/01/22 12:32:13;;;;;;;7.13;1.48;;;6.90;99.90;;;;;;5091043;28;20035;-85
2022/01/22 12:35:06;;;;;;;4.90;1.58;;;6.90;99.90;;;;;;5090688;28;20089;-84
2022/01/22 12:37:32;;;;;;;7.65;1.98;;;6.90;99.90;;;;;;5071179;28;20138;-85
2022/01/22 12:39:58;;;;;;;11.25;5.10;;;6.90;99.90;;;;;;5060383;28;20096;-83
2022/01/22 12:42:53;;;;;;;172.13;97.45;;;6.90;99.90;;;;;;5091314;28;20444;-85
2022/01/22 12:45:21;;;;;;;10.13;5.25;;;6.80;99.90;;;;;;5090445;28;20426;-83
2022/01/22 12:47:49;;;;;;;11.73;6.13;;;6.90;99.90;;;;;;5090354;28;20040;-82
2022/01/22 12:50:14;;;;;;;5.55;1.77;;;6.80;99.90;;;;;;5090806;28;20043;-81
2022/01/22 12:52:45;;;;;;;11.90;6.03;;;6.80;99.90;;;;;;5090517;28;20034;-83
2022/01/22 12:55:28;;;;;;;10.25;3.00;;;6.80;99.90;;;;;;5090473;28;20040;-84
2022/01/22 12:57:55;;;;;;;9.02;3.40;;;6.80;99.90;;;;;;5073120;28;20062;-84
2022/01/22 13:00:21;;;;;;;9.52;2.88;;;6.80;99.90;;;;;;5092105;28;20035;-84
2022/01/22 13:02:54;;;;;;;8.40;3.78;;;6.80;99.90;;;;;;5074784;28;20503;-84
2022/01/22 13:05:21;;;;;;;12.27;4.20;;;6.70;99.90;;;;;;5096700;28;20368;-85
2022/01/22 13:07:54;;;;;;;8.43;4.55;;;6.80;99.90;;;;;;5073992;28;20044;-83
2022/01/22 13:10:27;;;;;;;13.32;4.18;;;6.80;99.90;;;;;;5090527;28;20494;-84
2022/01/22 13:12:55;;;;;;;8.20;3.97;;;6.80;99.90;;;;;;5091217;28;20600;-84
2022/01/22 13:15:22;;;;;;;10.23;3.95;;;6.80;99.90;;;;;;5090207;28;20055;-84
2022/01/22 13:17:55;;;;;;;10.50;3.25;;;6.80;99.90;;;;;;5090384;28;20499;-84
2022/01/22 13:20:24;;;;;;;10.57;3.33;;;6.80;99.90;;;;;;5090336;28;20121;-84
2022/01/22 13:22:50;;;;;;;11.77;3.42;;;6.80;99.90;;;;;;5090785;28;20048;-84
2022/01/22 13:25:17;;;;;;;10.43;2.95;;;6.70;99.90;;;;;;5073219;28;20491;-84
2022/01/22 13:27:57;;;;;;;9.95;3.42;;;6.70;99.90;;;;;;5071396;28;20044;-84
2022/01/22 13:30:30;;;;;;;8.05;3.15;;;6.70;99.90;;;;;;5092423;28;20402;-84
2022/01/22 13:33:02;;;;;;;9.73;2.20;;;6.70;99.90;;;;;;5094460;28;20086;-84
2022/01/22 13:49:15;;;;;;;5.65;3.15;;;6.70;99.90;;;;;;5093886;28;20086;-82
2022/01/22 13:51:43;;;;;;;12.20;3.03;;;6.80;99.90;;;;;;5093862;28;20036;-83
2022/01/22 13:54:09;;;;;;;12.48;3.08;;;6.80;99.90;;;;;;5094152;28;20115;-80
2022/01/22 13:56:54;;;;;;;10.32;3.15;;;6.90;99.90;;;;;;5076361;28;20064;-82
2022/01/22 13:59:29;;;;;;;15.00;3.90;;;6.90;99.90;;;;;;5091345;28;20036;-82
2022/01/22 14:02:10;;;;;;;10.48;3.08;;;6.90;99.90;;;;;;5093290;28;20040;-82
2022/01/22 14:04:49;;;;;;;15.18;2.75;;;6.90;99.90;;;;;;5093625;28;20044;-82
2022/01/22 14:07:26;;;;;;;11.25;2.92;;;7.00;99.90;;;;;;5075729;28;20427;-82
2022/01/22 14:09:56;;;;;;;12.57;2.92;;;7.00;99.90;;;;;;5093823;28;20044;-82
2022/01/22 14:12:24;;;;;;;9.07;2.50;;;7.00;99.90;;;;;;5093927;28;20051;-81
2022/01/22 14:15:04;;;;;;;9.23;2.13;;;6.90;99.90;;;;;;5093566;28;20044;-82
2022/01/22 14:17:58;;;;;;;8.35;2.80;;;7.00;99.90;;;;;;5093055;28;20044;-80
2022/01/22 14:20:26;;;;;;;8.07;2.42;;;6.90;99.90;;;;;;5091591;28;20047;-81
2022/01/22 14:23:04;;;;;;;6.35;2.70;;;7.00;99.90;;;;;;5093072;28;20044;-82
2022/01/22 14:25:32;;;;;;;9.93;2.17;;;6.90;99.90;;;;;;5093055;28;20040;-82
2022/01/22 14:28:05;;;;;;;11.45;2.85;;;6.90;99.90;;;;;;5092916;28;20406;-82
2022/01/22 14:30:42;;;;;;;9.77;2.90;;;6.90;99.90;;;;;;5093602;28;20032;-82
2022/01/22 14:33:09;;;;;;;10.52;1.60;;;6.90;99.90;;;;;;5093353;28;20051;-82
2022/01/22 14:35:37;;;;;;;8.13;1.88;;;6.90;99.90;;;;;;5075799;28;20032;-82
2022/01/22 14:38:36;;;;;;;9.30;1.73;;;6.80;99.90;;;;;;5093222;28;20092;-82
2022/01/22 14:44:26;;;;;;;3.85;1.00;;;6.80;99.90;;;;;;5092658;28;20101;-82
2022/01/22 14:46:57;;;;;;;4.20;0.80;;;6.80;99.90;;;;;;5092773;28;20093;-82
2022/01/22 14:49:27;;;;;;;3.72;0.88;;;6.70;99.90;;;;;;5076006;28;20035;-85
2022/01/22 14:51:53;;;;;;;2.88;0.60;;;6.70;99.90;;;;;;5092836;28;20068;-85
2022/01/22 14:54:20;;;;;;;5.15;0.90;;;6.70;99.90;;;;;;5092456;28;20047;-85
2022/01/22 14:56:46;;;;;;;5.78;0.63;;;6.70;99.90;;;;;;5092456;28;20064;-85
2022/01/22 14:59:12;;;;;;;5.75;1.10;;;6.60;99.90;;;;;;5092782;28;20035;-84